createdAt,value
2022-12-03T00:00:25.225Z,4.55
2022-12-03T00:02:23.481Z,4.55
2022-12-03T00:04:22.816Z,4.64
2022-12-03T00:06:21.007Z,4.71
2022-12-03T00:08:19.210Z,4.77
2022-12-03T00:10:17.402Z,4.84
2022-12-03T00:12:15.670Z,4.70
2022-12-03T00:14:13.948Z,4.50
2022-12-03T00:16:13.660Z,4.40
2022-12-03T00:18:11.970Z,4.34
2022-12-03T00:20:12.973Z,4.31
2022-12-03T00:22:12.827Z,4.30
2022-12-03T00:24:11.259Z,4.29
2022-12-03T00:26:09.416Z,4.29
2022-12-03T00:28:07.700Z,4.30
2022-12-03T00:30:07.952Z,4.27
2022-12-03T00:32:07.648Z,4.34
2022-12-03T00:34:05.929Z,4.51
2022-12-03T00:36:04.138Z,4.57
2022-12-03T00:38:02.407Z,4.60
2022-12-03T00:40:00.721Z,4.62
2022-12-03T00:41:59.697Z,4.58
2022-12-03T00:43:57.985Z,4.53
2022-12-03T00:45:56.353Z,4.47
2022-12-03T00:47:55.909Z,4.42
2022-12-03T00:49:54.199Z,4.39
2022-12-03T00:51:52.492Z,4.35
2022-12-03T00:53:50.695Z,4.39
2022-12-03T00:55:50.725Z,4.39
2022-12-03T00:57:48.888Z,4.37
2022-12-03T00:59:47.198Z,4.37
2022-12-03T01:01:45.515Z,4.36
2022-12-03T01:03:45.219Z,4.36
2022-12-03T01:05:43.426Z,4.34
2022-12-03T01:07:41.697Z,4.38
2022-12-03T01:09:40.185Z,4.40
2022-12-03T01:11:41.487Z,4.49
2022-12-03T01:13:40.139Z,4.57
2022-12-03T01:15:38.362Z,4.68
2022-12-03T01:17:36.613Z,4.69
2022-12-03T01:19:36.423Z,4.63
2022-12-03T01:21:35.092Z,4.65
2022-12-03T01:23:33.146Z,4.56
2022-12-03T01:25:31.635Z,4.45
2022-12-03T01:27:29.932Z,4.45
2022-12-03T01:29:28.578Z,4.40
2022-12-03T01:31:44.540Z,4.41
2022-12-03T01:33:42.738Z,4.42
2022-12-03T01:35:42.400Z,4.41
2022-12-03T01:37:40.539Z,4.35
2022-12-03T01:39:39.099Z,4.34
2022-12-03T01:41:39.519Z,4.31
2022-12-03T01:43:38.347Z,4.34
2022-12-03T01:45:36.790Z,4.33
2022-12-03T01:47:37.705Z,4.33
2022-12-03T01:49:41.181Z,4.47
2022-12-03T01:51:43.358Z,4.70
2022-12-03T01:53:41.922Z,4.85
2022-12-03T01:55:40.247Z,4.89
2022-12-03T01:57:42.879Z,4.96
2022-12-03T01:59:41.064Z,4.98
2022-12-03T02:01:39.439Z,4.92
2022-12-03T02:03:37.971Z,4.75
2022-12-03T02:05:36.356Z,4.63
2022-12-03T02:07:36.054Z,4.56
2022-12-03T02:09:34.188Z,4.51
2022-12-03T02:11:37.005Z,4.50
2022-12-03T02:13:35.317Z,4.49
2022-12-03T02:15:33.816Z,4.50
2022-12-03T02:17:32.478Z,4.44
2022-12-03T02:19:31.073Z,4.47
2022-12-03T02:21:37.075Z,4.46
2022-12-03T02:23:44.180Z,4.45
2022-12-03T02:25:43.840Z,4.52
2022-12-03T02:27:42.601Z,4.50
2022-12-03T02:29:41.041Z,4.51
2022-12-03T02:31:39.517Z,4.51
2022-12-03T02:33:37.743Z,4.49
2022-12-03T02:35:38.406Z,4.55
2022-12-03T02:37:38.541Z,4.58
2022-12-03T02:39:41.722Z,4.54
2022-12-03T02:41:58.933Z,4.63
2022-12-03T02:43:57.090Z,4.64
2022-12-03T02:45:58.395Z,4.61
2022-12-03T02:47:59.289Z,4.66
2022-12-03T02:49:59.039Z,4.57
2022-12-03T02:51:57.172Z,4.56
2022-12-03T02:53:58.046Z,4.58
2022-12-03T02:55:59.086Z,4.56
2022-12-03T02:57:59.176Z,4.53
2022-12-03T02:59:57.590Z,4.53
2022-12-03T03:01:55.867Z,4.48
2022-12-03T03:03:54.685Z,4.42
2022-12-03T03:05:56.730Z,4.41
2022-12-03T03:07:55.398Z,4.42
2022-12-03T03:09:54.053Z,4.39
2022-12-03T03:11:52.196Z,4.37
2022-12-03T03:13:52.045Z,4.47
2022-12-03T03:15:50.587Z,4.44
2022-12-03T03:17:49.008Z,4.43
2022-12-03T03:19:47.190Z,4.54
2022-12-03T03:21:45.386Z,4.57
2022-12-03T03:23:43.647Z,4.60
2022-12-03T03:25:44.885Z,4.58
2022-12-03T03:27:43.914Z,4.57
2022-12-03T03:29:43.529Z,4.58
2022-12-03T03:31:43.495Z,4.50
2022-12-03T03:33:44.893Z,4.45
2022-12-03T03:35:43.720Z,4.46
2022-12-03T03:37:43.505Z,4.47
2022-12-03T03:39:41.835Z,4.47
2022-12-03T03:41:40.417Z,4.42
2022-12-03T03:43:40.170Z,4.39
2022-12-03T03:45:39.817Z,4.40
2022-12-03T03:47:38.570Z,4.40
2022-12-03T03:49:37.804Z,4.38
2022-12-03T03:51:37.474Z,4.33
2022-12-03T03:53:36.737Z,4.36
2022-12-03T03:55:35.816Z,4.46
2022-12-03T03:57:34.314Z,4.47
2022-12-03T03:59:32.642Z,4.54
2022-12-03T04:01:33.075Z,4.53
2022-12-03T04:03:31.474Z,4.50
2022-12-03T04:05:29.910Z,4.47
2022-12-03T04:07:28.874Z,4.43
2022-12-03T04:09:27.221Z,4.40
2022-12-03T04:11:43.250Z,4.33
2022-12-03T04:13:40.507Z,4.26
2022-12-03T04:15:38.780Z,4.28
2022-12-03T04:17:38.427Z,4.26
2022-12-03T04:19:35.754Z,4.22
2022-12-03T04:21:51.757Z,4.20
2022-12-03T04:23:50.010Z,4.22
2022-12-03T04:26:05.910Z,4.23
2022-12-03T04:28:22.011Z,4.22
2022-12-03T04:30:20.407Z,4.23
2022-12-03T04:32:36.068Z,4.19
2022-12-03T04:34:53.803Z,4.16
2022-12-03T04:36:52.398Z,4.19
2022-12-03T04:38:50.615Z,4.19
2022-12-03T04:41:05.151Z,4.21
2022-12-03T04:43:03.452Z,4.23
2022-12-03T04:45:01.760Z,4.25
2022-12-03T04:46:59.213Z,4.26
2022-12-03T04:48:57.375Z,4.30
2022-12-03T04:50:57.124Z,4.29
2022-12-03T04:52:55.375Z,4.26
2022-12-03T04:54:53.844Z,4.23
2022-12-03T04:56:52.280Z,4.29
2022-12-03T04:58:50.497Z,4.27
2022-12-03T05:00:48.661Z,4.28
2022-12-03T05:02:46.951Z,4.27
2022-12-03T05:04:45.216Z,4.24
2022-12-03T05:06:45.158Z,4.26
2022-12-03T05:08:43.302Z,4.28
2022-12-03T05:10:41.554Z,4.27
2022-12-03T05:12:39.962Z,4.25
2022-12-03T05:14:38.228Z,4.22
2022-12-03T05:16:36.641Z,4.23
2022-12-03T05:18:34.986Z,4.25
2022-12-03T05:20:49.838Z,4.23
2022-12-03T05:22:52.757Z,4.25
2022-12-03T05:24:51.190Z,4.25
2022-12-03T05:26:49.573Z,4.27
2022-12-03T05:28:47.874Z,4.29
2022-12-03T05:30:46.163Z,4.28
2022-12-03T05:32:44.326Z,4.31
2022-12-03T05:34:42.783Z,4.37
2022-12-03T05:36:41.101Z,4.36
2022-12-03T05:38:40.724Z,4.30
2022-12-03T05:40:39.066Z,4.29
2022-12-03T05:42:54.357Z,4.28
2022-12-03T05:44:52.773Z,4.22
2022-12-03T05:46:51.429Z,4.22
2022-12-03T05:48:49.764Z,4.21
2022-12-03T05:50:47.992Z,4.14
2022-12-03T05:52:46.296Z,4.16
2022-12-03T05:54:46.043Z,4.13
2022-12-03T05:56:44.147Z,4.08
2022-12-03T05:58:42.390Z,4.05
2022-12-03T06:00:42.654Z,4.05
2022-12-03T06:02:41.427Z,4.06
2022-12-03T06:04:39.719Z,4.06
2022-12-03T06:06:37.887Z,4.08
2022-12-03T06:08:36.094Z,4.08
2022-12-03T06:10:35.711Z,4.10
2022-12-03T06:12:34.025Z,4.10
2022-12-03T06:14:32.427Z,4.13
2022-12-03T06:16:30.799Z,4.19
2022-12-03T06:18:29.219Z,4.22
2022-12-03T06:20:27.451Z,4.26
2022-12-03T06:22:25.789Z,4.28
2022-12-03T06:24:23.915Z,4.33
2022-12-03T06:26:23.503Z,4.34
2022-12-03T06:28:21.674Z,4.33
2022-12-03T06:30:20.150Z,4.47
2022-12-03T06:32:18.507Z,4.44
2022-12-03T06:34:16.747Z,4.45
2022-12-03T06:36:17.799Z,4.43
2022-12-03T06:38:19.619Z,4.44
2022-12-03T06:40:18.082Z,4.49
2022-12-03T06:42:17.680Z,4.56
2022-12-03T06:44:15.855Z,4.63
2022-12-03T06:46:14.177Z,4.66
2022-12-03T06:48:12.518Z,4.72
2022-12-03T06:50:11.386Z,4.55
2022-12-03T06:52:09.670Z,4.46
2022-12-03T06:54:08.052Z,4.45
2022-12-03T06:56:07.042Z,4.44
2022-12-03T06:58:06.749Z,4.46
2022-12-03T07:00:10.109Z,4.48
2022-12-03T07:02:08.536Z,4.47
2022-12-03T07:04:07.234Z,4.47
2022-12-03T07:06:05.827Z,4.43
2022-12-03T07:08:04.291Z,4.43
2022-12-03T07:10:02.541Z,4.53
2022-12-03T07:12:00.979Z,4.62
2022-12-03T07:14:05.627Z,4.66
2022-12-03T07:16:04.193Z,4.66
2022-12-03T07:18:03.731Z,4.65
2022-12-03T07:20:01.908Z,4.62
2022-12-03T07:22:00.266Z,4.58
2022-12-03T07:23:58.639Z,4.55
2022-12-03T07:25:56.804Z,4.54
2022-12-03T07:27:55.116Z,4.57
2022-12-03T07:29:54.712Z,4.57
2022-12-03T07:31:53.255Z,4.55
2022-12-03T07:33:51.578Z,4.60
2022-12-03T07:35:49.916Z,4.63
2022-12-03T07:37:48.053Z,4.57
2022-12-03T07:39:46.189Z,4.68
2022-12-03T07:41:44.371Z,4.69
2022-12-03T07:43:42.783Z,4.55
2022-12-03T07:45:42.295Z,4.64
2022-12-03T07:47:40.587Z,4.76
2022-12-03T07:49:38.993Z,4.70
2022-12-03T07:51:37.238Z,4.74
2022-12-03T07:53:36.156Z,4.78
2022-12-03T07:55:34.468Z,4.86
2022-12-03T07:57:32.761Z,4.86
2022-12-03T07:59:31.147Z,4.77
2022-12-03T08:01:30.716Z,4.69
2022-12-03T08:03:28.924Z,4.78
2022-12-03T08:05:29.893Z,4.89
2022-12-03T08:07:28.259Z,4.91
2022-12-03T08:09:26.672Z,4.81
2022-12-03T08:11:25.076Z,4.74
2022-12-03T08:13:23.352Z,4.66
2022-12-03T08:15:24.955Z,4.76
2022-12-03T08:17:26.109Z,4.87
2022-12-03T08:19:24.504Z,4.98
2022-12-03T08:21:23.259Z,5.05
2022-12-03T08:23:22.863Z,5.12
2022-12-03T08:25:24.666Z,5.18
2022-12-03T08:27:22.791Z,5.14
2022-12-03T08:29:21.441Z,5.04
2022-12-03T08:31:27.993Z,5.02
2022-12-03T08:33:33.743Z,5.04
2022-12-03T08:35:32.541Z,4.97
2022-12-03T08:37:31.360Z,4.98
2022-12-03T08:39:34.530Z,4.97
2022-12-03T08:41:50.177Z,5.08
2022-12-03T08:43:49.120Z,5.15
2022-12-03T08:45:49.843Z,5.27
2022-12-03T08:47:48.203Z,5.28
2022-12-03T08:49:56.098Z,5.44
2022-12-03T08:51:58.535Z,5.50
2022-12-03T08:54:13.968Z,5.59
2022-12-03T08:56:21.830Z,5.91
2022-12-03T08:58:24.703Z,6.11
2022-12-03T09:00:25.228Z,6.09
2022-12-03T09:02:30.107Z,6.11
2022-12-03T09:04:32.267Z,5.92
2022-12-03T09:06:32.034Z,5.83
2022-12-03T09:08:30.302Z,5.75
2022-12-03T09:10:28.485Z,5.73
2022-12-03T09:12:26.815Z,5.71
2022-12-03T09:14:29.172Z,5.70
2022-12-03T09:16:27.537Z,5.69
2022-12-03T09:18:25.814Z,5.81
2022-12-03T09:20:26.334Z,5.92
2022-12-03T09:22:25.819Z,5.86
2022-12-03T09:24:24.265Z,5.84
2022-12-03T09:26:28.203Z,5.78
2022-12-03T09:28:27.791Z,5.71
2022-12-03T09:30:26.145Z,5.76
2022-12-03T09:32:24.441Z,5.82
2022-12-03T09:34:25.540Z,5.81
2022-12-03T09:36:23.994Z,5.83
2022-12-03T09:38:23.506Z,5.88
2022-12-03T09:40:22.344Z,5.87
2022-12-03T09:42:20.669Z,5.93
2022-12-03T09:44:19.334Z,5.90
2022-12-03T09:46:18.104Z,6.03
2022-12-03T09:48:17.897Z,6.09
2022-12-03T09:50:30.638Z,6.07
2022-12-03T09:52:33.108Z,6.04
2022-12-03T09:54:33.788Z,6.12
2022-12-03T09:56:32.734Z,6.12
2022-12-03T09:58:34.727Z,6.17
2022-12-03T10:00:34.099Z,6.23
2022-12-03T10:02:34.351Z,6.30
2022-12-03T10:04:33.183Z,6.32
2022-12-03T10:06:32.908Z,6.22
2022-12-03T10:08:34.623Z,6.19
2022-12-03T10:10:36.659Z,6.14
2022-12-03T10:12:35.646Z,6.12
2022-12-03T10:14:33.960Z,6.10
2022-12-03T10:16:32.475Z,6.08
2022-12-03T10:18:41.315Z,6.06
2022-12-03T10:20:40.133Z,6.02
2022-12-03T10:22:40.686Z,6.12
2022-12-03T10:24:39.763Z,6.20
2022-12-03T10:26:41.665Z,6.24
2022-12-03T10:28:42.134Z,6.33
2022-12-03T10:30:54.078Z,6.31
2022-12-03T10:32:52.611Z,6.41
2022-12-03T10:34:53.056Z,6.55
2022-12-03T10:37:10.797Z,6.61
2022-12-03T10:39:12.345Z,6.61
2022-12-03T10:41:22.971Z,6.66
2022-12-03T10:43:26.413Z,6.61
2022-12-03T10:45:24.694Z,6.61
2022-12-03T10:47:25.394Z,6.56
2022-12-03T10:49:23.773Z,6.55
2022-12-03T10:51:22.668Z,6.47
2022-12-03T10:53:22.880Z,6.50
2022-12-03T10:55:21.305Z,6.53
2022-12-03T10:57:19.404Z,6.49
2022-12-03T10:59:22.273Z,6.43
2022-12-03T11:01:23.610Z,6.35
2022-12-03T11:03:24.753Z,6.25
2022-12-03T11:05:27.432Z,6.26
2022-12-03T11:07:26.346Z,6.28
2022-12-03T11:09:28.469Z,6.40
2022-12-03T11:11:29.041Z,6.43
2022-12-03T11:13:49.568Z,6.38
2022-12-03T11:15:49.592Z,6.33
2022-12-03T11:17:50.984Z,6.35
2022-12-03T11:19:50.988Z,6.33
2022-12-03T11:22:18.277Z,6.22
2022-12-03T11:24:22.125Z,6.22
2022-12-03T11:27:01.388Z,6.19
2022-12-03T11:29:00.703Z,6.19
2022-12-03T11:31:02.593Z,6.31
2022-12-03T11:33:02.158Z,6.45
2022-12-03T11:35:00.598Z,6.49
2022-12-03T11:37:25.613Z,6.46
2022-12-03T11:39:57.311Z,6.52
2022-12-03T11:42:38.955Z,6.52
2022-12-03T11:44:37.343Z,6.43
2022-12-03T11:46:45.658Z,6.38
2022-12-03T11:48:46.461Z,6.43
2022-12-03T11:50:51.217Z,6.38
2022-12-03T11:52:53.631Z,6.41
2022-12-03T11:54:55.397Z,6.38
2022-12-03T11:56:56.175Z,6.32
2022-12-03T11:59:00.018Z,6.30
2022-12-03T12:01:05.609Z,6.30
2022-12-03T12:03:05.705Z,6.30
2022-12-03T12:05:22.685Z,6.24
2022-12-03T12:07:35.001Z,6.15
2022-12-03T12:09:54.075Z,6.15
2022-12-03T12:11:52.664Z,6.22
2022-12-03T12:13:52.701Z,6.33
2022-12-03T12:15:50.972Z,6.41
2022-12-03T12:17:49.347Z,6.42
2022-12-03T12:19:54.229Z,6.42
2022-12-03T12:21:53.207Z,6.38
2022-12-03T12:23:51.537Z,6.36
2022-12-03T12:25:54.185Z,6.40
2022-12-03T12:27:53.979Z,6.36
2022-12-03T12:29:55.320Z,6.23
2022-12-03T12:32:01.062Z,6.20
2022-12-03T12:33:59.387Z,6.24
2022-12-03T12:35:59.085Z,6.28
2022-12-03T12:38:11.090Z,6.28
2022-12-03T12:40:17.599Z,6.26
2022-12-03T12:42:34.890Z,6.26
2022-12-03T12:44:33.570Z,6.29
2022-12-03T12:46:47.711Z,6.27
2022-12-03T12:48:46.384Z,6.28
2022-12-03T12:50:46.324Z,6.31
2022-12-03T12:52:52.765Z,6.33
2022-12-03T12:54:51.045Z,6.42
2022-12-03T12:56:51.105Z,6.34
2022-12-03T12:58:49.441Z,6.32
2022-12-03T13:00:51.606Z,6.27
2022-12-03T13:02:57.915Z,6.25
2022-12-03T13:04:56.294Z,6.14
2022-12-03T13:06:55.799Z,6.18
2022-12-03T13:08:56.208Z,6.20
2022-12-03T13:10:55.693Z,6.22
2022-12-03T13:12:53.961Z,6.23
2022-12-03T13:14:53.160Z,6.19
2022-12-03T13:16:52.984Z,6.16
2022-12-03T13:18:55.554Z,6.17
2022-12-03T13:20:54.089Z,6.39
2022-12-03T13:22:52.230Z,6.36
2022-12-03T13:24:53.376Z,6.46
2022-12-03T13:26:51.586Z,6.35
2022-12-03T13:28:50.497Z,6.22
2022-12-03T13:30:48.815Z,6.15
2022-12-03T13:32:47.091Z,6.06
2022-12-03T13:34:46.609Z,5.97
2022-12-03T13:36:50.739Z,5.96
2022-12-03T13:38:55.244Z,5.88
2022-12-03T13:41:01.198Z,5.88
2022-12-03T13:42:58.762Z,5.86
2022-12-03T13:44:58.053Z,5.79
2022-12-03T13:46:56.375Z,5.78
2022-12-03T13:48:58.704Z,5.74
2022-12-03T13:51:01.632Z,5.72
2022-12-03T13:53:01.936Z,5.72
2022-12-03T13:55:00.127Z,5.72
2022-12-03T13:57:00.395Z,5.71
2022-12-03T13:59:00.484Z,5.65
2022-12-03T14:00:59.012Z,5.62
2022-12-03T14:02:57.397Z,5.64
2022-12-03T14:05:00.233Z,5.66
2022-12-03T14:06:59.123Z,5.74
2022-12-03T14:08:57.343Z,5.75
2022-12-03T14:11:00.247Z,5.78
2022-12-03T14:12:59.581Z,5.76
2022-12-03T14:14:58.560Z,5.79
2022-12-03T14:16:59.910Z,5.74
2022-12-03T14:18:58.488Z,5.70
2022-12-03T14:20:56.851Z,5.68
2022-12-03T14:22:59.212Z,5.63
2022-12-03T14:24:58.842Z,5.61
2022-12-03T14:26:57.209Z,5.64
2022-12-03T14:28:56.833Z,5.61
2022-12-03T14:30:59.524Z,5.63
2022-12-03T14:32:58.072Z,5.62
2022-12-03T14:34:56.762Z,5.58
2022-12-03T14:36:55.127Z,5.61
2022-12-03T14:38:53.679Z,5.59
2022-12-03T14:40:51.924Z,5.60
2022-12-03T14:42:49.084Z,5.64
2022-12-03T14:44:50.305Z,5.63
2022-12-03T14:46:51.586Z,5.61
2022-12-03T14:48:52.314Z,5.59
2022-12-03T14:50:50.471Z,5.73
2022-12-03T14:52:49.378Z,5.80
2022-12-03T14:54:47.757Z,5.81
2022-12-03T14:56:46.037Z,5.73
2022-12-03T14:58:44.304Z,5.67
2022-12-03T15:00:43.845Z,5.59
2022-12-03T15:02:42.219Z,5.53
2022-12-03T15:04:41.192Z,5.53
2022-12-03T15:06:39.399Z,5.53
2022-12-03T15:08:37.717Z,5.53
2022-12-03T15:10:35.864Z,5.50
2022-12-03T15:12:34.144Z,5.52
2022-12-03T15:14:32.399Z,5.57
2022-12-03T15:16:32.100Z,5.56
2022-12-03T15:18:31.297Z,5.55
2022-12-03T15:20:29.846Z,5.58
2022-12-03T15:22:28.238Z,5.57
2022-12-03T15:24:26.483Z,5.54
2022-12-03T15:26:24.740Z,5.49
2022-12-03T15:28:23.247Z,5.61
2022-12-03T15:30:21.450Z,5.59
2022-12-03T15:32:21.202Z,5.58
2022-12-03T15:34:22.928Z,5.53
2022-12-03T15:36:21.407Z,5.51
2022-12-03T15:38:19.978Z,5.48
2022-12-03T15:40:18.179Z,5.49
2022-12-03T15:42:16.609Z,5.50
2022-12-03T15:44:17.297Z,5.48
2022-12-03T15:46:15.641Z,5.51
2022-12-03T15:48:15.658Z,5.51
2022-12-03T15:50:15.017Z,5.49
2022-12-03T15:52:13.323Z,5.46
2022-12-03T15:54:12.423Z,5.50
2022-12-03T15:56:12.093Z,5.54
2022-12-03T15:58:10.683Z,5.54
2022-12-03T16:00:12.068Z,5.47
2022-12-03T16:02:10.442Z,5.46
2022-12-03T16:04:10.322Z,5.43
2022-12-03T16:06:09.156Z,5.40
2022-12-03T16:08:07.612Z,5.37
2022-12-03T16:10:07.093Z,5.39
2022-12-03T16:12:14.278Z,5.41
2022-12-03T16:14:12.662Z,5.42
2022-12-03T16:16:10.971Z,5.45
2022-12-03T16:18:09.387Z,5.49
2022-12-03T16:20:11.119Z,5.46
2022-12-03T16:22:09.390Z,5.46
2022-12-03T16:24:08.221Z,5.47
2022-12-03T16:26:06.708Z,5.48
2022-12-03T16:28:05.292Z,5.46
2022-12-03T16:30:04.610Z,5.48
2022-12-03T16:32:02.911Z,5.52
2022-12-03T16:34:01.176Z,5.51
2022-12-03T16:36:00.790Z,5.50
2022-12-03T16:37:59.137Z,5.57
2022-12-03T16:39:57.535Z,5.60
2022-12-03T16:41:55.827Z,5.63
2022-12-03T16:43:54.234Z,5.63
2022-12-03T16:46:02.571Z,5.64
2022-12-03T16:48:02.686Z,5.69
2022-12-03T16:50:01.144Z,5.63
2022-12-03T16:52:00.838Z,5.63
2022-12-03T16:53:59.413Z,5.65
2022-12-03T16:55:57.584Z,5.63
2022-12-03T16:57:56.007Z,5.61
2022-12-03T16:59:54.306Z,5.60
2022-12-03T17:01:52.941Z,5.57
2022-12-03T17:03:51.300Z,5.51
2022-12-03T17:05:49.999Z,5.48
2022-12-03T17:07:49.640Z,5.40
2022-12-03T17:09:48.051Z,5.39
2022-12-03T17:11:46.374Z,5.33
2022-12-03T17:13:44.728Z,5.40
2022-12-03T17:15:43.287Z,5.41
2022-12-03T17:17:41.625Z,5.43
2022-12-03T17:19:41.661Z,5.38
2022-12-03T17:21:39.862Z,5.39
2022-12-03T17:23:39.594Z,5.40
2022-12-03T17:25:37.789Z,5.45
2022-12-03T17:27:38.688Z,5.48
2022-12-03T17:29:41.784Z,5.47
2022-12-03T17:31:42.529Z,5.48
2022-12-03T17:33:41.654Z,5.49
2022-12-03T17:35:39.889Z,5.50
2022-12-03T17:37:38.466Z,5.49
2022-12-03T17:39:40.495Z,5.42
2022-12-03T17:41:38.564Z,5.45
2022-12-03T17:43:36.880Z,5.43
2022-12-03T17:45:36.842Z,5.44
2022-12-03T17:47:35.193Z,5.40
2022-12-03T17:49:33.544Z,5.37
2022-12-03T17:51:31.915Z,5.35
2022-12-03T17:53:31.954Z,5.38
2022-12-03T17:55:38.571Z,5.39
2022-12-03T17:57:43.457Z,5.40
2022-12-03T17:59:41.839Z,5.40
2022-12-03T18:01:41.688Z,5.42
2022-12-03T18:03:39.960Z,5.38
2022-12-03T18:05:38.726Z,5.35
2022-12-03T18:07:36.985Z,5.30
2022-12-03T18:09:35.418Z,5.26
2022-12-03T18:11:35.206Z,5.23
2022-12-03T18:13:33.704Z,5.17
2022-12-03T18:15:32.484Z,5.20
2022-12-03T18:17:30.861Z,5.16
2022-12-03T18:19:29.250Z,5.13
2022-12-03T18:21:28.210Z,5.12
2022-12-03T18:23:26.594Z,5.10
2022-12-03T18:25:25.196Z,5.10
2022-12-03T18:27:26.583Z,5.12
2022-12-03T18:29:24.929Z,5.16
2022-12-03T18:31:23.604Z,5.21
2022-12-03T18:33:23.489Z,5.23
2022-12-03T18:35:21.890Z,5.23
2022-12-03T18:37:20.136Z,5.21
2022-12-03T18:39:25.955Z,5.21
2022-12-03T18:41:25.828Z,5.18
2022-12-03T18:43:29.048Z,5.22
2022-12-03T18:45:27.560Z,5.19
2022-12-03T18:47:29.244Z,5.20
2022-12-03T18:49:27.622Z,5.21
2022-12-03T18:51:26.007Z,5.18
2022-12-03T18:53:24.285Z,5.21
2022-12-03T18:55:23.287Z,5.17
2022-12-03T18:57:21.716Z,5.21
2022-12-03T18:59:21.305Z,5.22
2022-12-03T19:01:22.611Z,5.19
2022-12-03T19:03:21.203Z,5.19
2022-12-03T19:05:19.693Z,5.18
2022-12-03T19:07:17.868Z,5.17
2022-12-03T19:09:16.701Z,5.13
2022-12-03T19:11:15.171Z,5.11
2022-12-03T19:13:13.392Z,5.12
2022-12-03T19:15:13.463Z,5.11
2022-12-03T19:17:11.852Z,5.11
2022-12-03T19:19:10.672Z,5.12
2022-12-03T19:21:10.867Z,5.12
2022-12-03T19:23:09.619Z,5.13
2022-12-03T19:25:08.624Z,5.11
2022-12-03T19:27:06.824Z,5.07
2022-12-03T19:29:05.342Z,5.09
2022-12-03T19:31:07.381Z,5.03
2022-12-03T19:33:05.895Z,4.99
2022-12-03T19:35:05.347Z,4.98
2022-12-03T19:37:03.677Z,4.95
2022-12-03T19:39:02.243Z,4.91
2022-12-03T19:41:02.331Z,4.91
2022-12-03T19:43:00.630Z,4.87
2022-12-03T19:44:58.966Z,4.93
2022-12-03T19:46:59.285Z,4.93
2022-12-03T19:48:58.146Z,4.93
2022-12-03T19:51:13.560Z,4.96
2022-12-03T19:53:14.691Z,4.82
2022-12-03T19:55:13.727Z,4.76
2022-12-03T19:57:12.138Z,4.76
2022-12-03T19:59:13.472Z,4.72
2022-12-03T20:01:13.865Z,4.68
2022-12-03T20:03:13.653Z,4.68
2022-12-03T20:05:11.926Z,4.66
2022-12-03T20:07:10.190Z,4.64
2022-12-03T20:09:12.136Z,4.63
2022-12-03T20:11:12.368Z,4.59
2022-12-03T20:13:10.497Z,4.58
2022-12-03T20:15:10.406Z,4.55
2022-12-03T20:17:08.720Z,4.54
2022-12-03T20:19:11.242Z,4.55
2022-12-03T20:21:11.050Z,4.58
2022-12-03T20:23:09.181Z,4.58
2022-12-03T20:25:10.224Z,4.60
2022-12-03T20:27:08.498Z,4.62
2022-12-03T20:29:06.770Z,4.60
2022-12-03T20:31:09.660Z,4.65
2022-12-03T20:33:08.120Z,4.70
2022-12-03T20:35:11.675Z,4.73
2022-12-03T20:37:10.003Z,4.78
2022-12-03T20:39:09.304Z,4.78
2022-12-03T20:41:10.200Z,4.76
2022-12-03T20:43:08.547Z,4.79
2022-12-03T20:45:08.171Z,4.79
2022-12-03T20:47:06.481Z,4.82
2022-12-03T20:49:05.546Z,4.83
2022-12-03T20:51:07.184Z,4.84
2022-12-03T20:53:23.630Z,4.80
2022-12-03T20:55:22.817Z,4.81
2022-12-03T20:57:21.015Z,4.85
2022-12-03T20:59:19.205Z,4.85
2022-12-03T21:01:20.182Z,4.87
2022-12-03T21:03:18.516Z,4.87
2022-12-03T21:05:17.157Z,4.85
2022-12-03T21:07:16.859Z,4.85
2022-12-03T21:09:15.166Z,4.84
2022-12-03T21:11:15.788Z,4.94
2022-12-03T21:13:15.540Z,4.91
2022-12-03T21:15:13.790Z,4.86
2022-12-03T21:17:12.256Z,4.80
2022-12-03T21:19:10.593Z,4.73
2022-12-03T21:21:11.716Z,4.68
2022-12-03T21:23:11.236Z,4.66
2022-12-03T21:25:10.012Z,4.65
2022-12-03T21:27:08.278Z,4.62
2022-12-03T21:29:06.766Z,4.61
2022-12-03T21:31:07.186Z,4.58
2022-12-03T21:33:05.662Z,4.59
2022-12-03T21:35:06.198Z,4.57
2022-12-03T21:37:04.977Z,4.60
2022-12-03T21:39:04.882Z,4.61
2022-12-03T21:41:04.079Z,4.58
2022-12-03T21:43:02.522Z,4.61
2022-12-03T21:45:00.752Z,4.56
2022-12-03T21:47:10.256Z,4.58
2022-12-03T21:49:12.226Z,4.61
2022-12-03T21:51:12.255Z,4.57
2022-12-03T21:53:11.247Z,4.55
2022-12-03T21:55:11.601Z,4.58
2022-12-03T21:57:09.749Z,4.63
2022-12-03T21:59:08.255Z,4.60
2022-12-03T22:01:14.037Z,4.57
2022-12-03T22:03:12.554Z,4.51
2022-12-03T22:05:12.155Z,4.45
2022-12-03T22:07:10.256Z,4.44
2022-12-03T22:09:08.511Z,4.42
2022-12-03T22:11:09.961Z,4.41
2022-12-03T22:13:08.280Z,4.38
2022-12-03T22:15:07.626Z,4.39
2022-12-03T22:17:05.696Z,4.42
2022-12-03T22:19:03.980Z,4.38
2022-12-03T22:21:04.993Z,4.36
2022-12-03T22:23:03.596Z,4.27
2022-12-03T22:25:01.770Z,4.24
2022-12-03T22:27:02.069Z,4.19
2022-12-03T22:29:00.814Z,4.18
2022-12-03T22:30:59.366Z,4.17
2022-12-03T22:32:57.604Z,4.13
2022-12-03T22:34:55.989Z,4.09
2022-12-03T22:36:54.293Z,4.06
2022-12-03T22:38:52.675Z,4.08
2022-12-03T22:40:51.177Z,4.09
2022-12-03T22:42:51.357Z,4.13
2022-12-03T22:44:49.610Z,4.12
2022-12-03T22:46:47.871Z,4.08
2022-12-03T22:48:47.492Z,4.11
2022-12-03T22:50:46.967Z,4.13
2022-12-03T22:52:45.110Z,4.14
2022-12-03T22:54:46.316Z,4.13
2022-12-03T22:56:44.524Z,4.11
2022-12-03T22:58:44.177Z,4.17
2022-12-03T23:00:42.618Z,4.17
2022-12-03T23:02:40.776Z,4.14
2022-12-03T23:04:39.134Z,4.12
2022-12-03T23:06:38.041Z,4.15
2022-12-03T23:08:36.274Z,4.11
2022-12-03T23:10:35.314Z,4.12
2022-12-03T23:12:33.423Z,4.13
2022-12-03T23:14:33.013Z,4.12
2022-12-03T23:16:33.173Z,4.10
2022-12-03T23:18:31.555Z,4.13
2022-12-03T23:20:30.210Z,4.13
2022-12-03T23:22:28.448Z,4.13
2022-12-03T23:24:27.387Z,4.16
2022-12-03T23:26:26.045Z,4.14
2022-12-03T23:28:24.414Z,4.15
2022-12-03T23:30:24.143Z,4.13
2022-12-03T23:32:22.367Z,4.13
2022-12-03T23:34:20.731Z,4.13
2022-12-03T23:36:19.203Z,4.14
2022-12-03T23:38:17.349Z,4.09
2022-12-03T23:40:15.917Z,4.04
2022-12-03T23:42:14.145Z,4.06
2022-12-03T23:44:12.386Z,4.07
2022-12-03T23:46:13.837Z,4.06
2022-12-03T23:48:12.747Z,4.03
2022-12-03T23:50:12.267Z,4.00
2022-12-03T23:52:10.466Z,4.01
2022-12-03T23:54:08.684Z,4.05
2022-12-03T23:56:07.830Z,4.05
2022-12-03T23:58:06.010Z,4.03
